createdAt,value
2023-05-21T00:01:45.706Z,16.56
2023-05-21T00:04:15.550Z,16.49
2023-05-21T00:06:43.381Z,16.45
2023-05-21T00:09:12.877Z,16.45
2023-05-21T00:11:40.721Z,16.44
2023-05-21T00:14:08.615Z,16.47
2023-05-21T00:16:37.856Z,16.44
2023-05-21T00:19:06.192Z,16.40
2023-05-21T00:21:34.050Z,16.39
2023-05-21T00:24:01.875Z,16.38
2023-05-21T00:26:29.717Z,16.33
2023-05-21T00:28:58.503Z,16.31
2023-05-21T00:31:26.354Z,16.29
2023-05-21T00:33:55.930Z,16.24
2023-05-21T00:36:24.385Z,16.23
2023-05-21T00:38:53.060Z,16.21
2023-05-21T00:41:22.749Z,16.22
2023-05-21T00:43:50.659Z,16.18
2023-05-21T00:46:20.983Z,16.18
2023-05-21T00:48:50.457Z,16.14
2023-05-21T00:51:21.538Z,16.07
2023-05-21T00:53:52.508Z,16.09
2023-05-21T00:56:21.377Z,16.05
2023-05-21T00:58:49.466Z,16.02
2023-05-21T01:01:18.330Z,16.01
2023-05-21T01:03:48.572Z,15.98
2023-05-21T01:06:17.057Z,15.97
2023-05-21T01:08:46.706Z,15.97
2023-05-21T01:11:15.699Z,15.91
2023-05-21T01:13:44.799Z,15.91
2023-05-21T01:16:13.663Z,15.88
2023-05-21T01:18:43.655Z,15.91
2023-05-21T01:21:12.243Z,15.90
2023-05-21T01:23:41.568Z,15.90
2023-05-21T01:26:12.820Z,15.87
2023-05-21T01:28:40.671Z,15.83
2023-05-21T01:31:17.618Z,15.82
2023-05-21T01:33:49.960Z,15.81
2023-05-21T01:36:24.246Z,15.82
2023-05-21T01:38:58.888Z,15.74
2023-05-21T01:41:28.509Z,15.67
2023-05-21T01:43:57.745Z,15.65
2023-05-21T01:46:32.395Z,15.66
2023-05-21T01:49:00.925Z,15.64
2023-05-21T01:51:29.443Z,15.63
2023-05-21T01:53:58.659Z,15.65
2023-05-21T01:56:28.510Z,15.66
2023-05-21T01:58:59.521Z,15.58
2023-05-21T02:01:30.414Z,15.52
2023-05-21T02:03:58.951Z,15.51
2023-05-21T02:06:26.875Z,15.50
2023-05-21T02:08:55.591Z,15.54
2023-05-21T02:11:25.147Z,15.58
2023-05-21T02:13:54.480Z,15.58
2023-05-21T02:16:22.488Z,15.51
2023-05-21T02:18:52.272Z,15.47
2023-05-21T02:21:20.731Z,15.45
2023-05-21T02:23:48.566Z,15.47
2023-05-21T02:26:17.495Z,15.49
2023-05-21T02:28:46.717Z,15.45
2023-05-21T02:31:14.641Z,15.45
2023-05-21T02:33:43.119Z,15.46
2023-05-21T02:36:13.521Z,15.49
2023-05-21T02:38:43.666Z,15.46
2023-05-21T02:41:12.135Z,15.44
2023-05-21T02:43:40.638Z,15.45
2023-05-21T02:46:10.001Z,15.44
2023-05-21T02:48:37.855Z,15.43
2023-05-21T02:51:06.627Z,15.43
2023-05-21T02:53:34.468Z,15.39
2023-05-21T02:56:02.260Z,15.37
2023-05-21T02:58:30.238Z,15.32
2023-05-21T03:00:58.114Z,15.33
2023-05-21T03:03:27.387Z,15.32
2023-05-21T03:05:55.310Z,15.25
2023-05-21T03:08:23.231Z,15.21
2023-05-21T03:10:51.142Z,15.23
2023-05-21T03:13:19.144Z,15.23
2023-05-21T03:15:47.388Z,15.22
2023-05-21T03:18:15.329Z,15.19
2023-05-21T03:20:45.445Z,15.19
2023-05-21T03:23:16.391Z,15.18
2023-05-21T03:25:45.973Z,15.09
2023-05-21T03:28:14.350Z,15.07
2023-05-21T03:30:46.714Z,15.05
2023-05-21T03:33:37.546Z,15.02
2023-05-21T03:36:19.731Z,14.99
2023-05-21T03:38:47.729Z,15.02
2023-05-21T03:41:15.817Z,15.05
2023-05-21T03:43:47.385Z,15.04
2023-05-21T03:46:15.348Z,15.03
2023-05-21T03:48:49.657Z,15.05
2023-05-21T03:51:22.814Z,15.04
2023-05-21T03:53:50.869Z,15.00
2023-05-21T03:56:18.980Z,14.98
2023-05-21T03:58:46.887Z,14.94
2023-05-21T04:01:15.205Z,14.93
2023-05-21T04:03:43.374Z,14.94
2023-05-21T04:06:11.426Z,14.96
2023-05-21T04:08:42.620Z,14.95
2023-05-21T04:11:10.590Z,14.95
2023-05-21T04:13:39.615Z,14.92
2023-05-21T04:16:09.066Z,14.91
2023-05-21T04:18:37.037Z,14.91
2023-05-21T04:21:05.900Z,14.90
2023-05-21T04:23:33.720Z,14.91
2023-05-21T04:26:04.816Z,14.93
2023-05-21T04:28:33.254Z,14.92
2023-05-21T04:31:01.304Z,14.92
2023-05-21T04:33:30.435Z,14.89
2023-05-21T04:35:58.367Z,14.89
2023-05-21T04:38:26.413Z,14.89
2023-05-21T04:40:55.657Z,14.95
2023-05-21T04:43:26.160Z,14.95
2023-05-21T04:45:56.964Z,14.96
2023-05-21T04:48:26.827Z,14.91
2023-05-21T04:50:56.073Z,14.93
2023-05-21T04:53:26.110Z,14.88
2023-05-21T04:55:54.164Z,14.87
2023-05-21T04:58:22.043Z,14.87
2023-05-21T05:00:51.949Z,14.89
2023-05-21T05:03:19.915Z,14.95
2023-05-21T05:05:48.476Z,14.95
2023-05-21T05:08:16.336Z,14.96
2023-05-21T05:10:44.674Z,14.94
2023-05-21T05:13:12.570Z,14.96
2023-05-21T05:15:40.462Z,14.98
2023-05-21T05:18:11.912Z,14.99
2023-05-21T05:20:41.331Z,14.99
2023-05-21T05:23:09.110Z,14.97
2023-05-21T05:25:37.125Z,15.01
2023-05-21T05:28:05.468Z,15.03
2023-05-21T05:30:33.508Z,15.02
2023-05-21T05:33:14.229Z,14.98
2023-05-21T05:35:42.304Z,15.01
2023-05-21T05:38:10.192Z,14.98
2023-05-21T05:40:38.427Z,15.02
2023-05-21T05:43:06.449Z,15.04
2023-05-21T05:45:34.474Z,15.08
2023-05-21T05:48:03.955Z,15.09
2023-05-21T05:50:33.328Z,15.03
2023-05-21T05:53:01.178Z,15.06
2023-05-21T05:55:30.216Z,15.11
2023-05-21T05:57:58.092Z,15.11
2023-05-21T06:00:26.258Z,15.12
2023-05-21T06:02:54.400Z,15.12
2023-05-21T06:05:22.566Z,15.16
2023-05-21T06:07:51.806Z,15.18
2023-05-21T06:10:21.465Z,15.18
2023-05-21T06:12:49.313Z,15.21
2023-05-21T06:15:19.404Z,15.28
2023-05-21T06:17:47.278Z,15.36
2023-05-21T06:20:17.163Z,15.43
2023-05-21T06:22:45.147Z,15.53
2023-05-21T06:25:14.600Z,15.66
2023-05-21T06:27:42.532Z,15.84
2023-05-21T06:30:17.530Z,15.99
2023-05-21T06:32:45.475Z,16.12
2023-05-21T06:35:13.410Z,16.18
2023-05-21T06:37:41.229Z,16.27
2023-05-21T06:40:10.129Z,16.35
2023-05-21T06:42:39.994Z,16.37
2023-05-21T06:45:26.262Z,16.45
2023-05-21T06:47:59.272Z,16.48
2023-05-21T06:50:27.782Z,16.58
2023-05-21T06:52:55.777Z,16.60
2023-05-21T06:55:23.869Z,16.65
2023-05-21T06:58:05.782Z,16.73
2023-05-21T07:00:33.633Z,16.79
2023-05-21T07:03:01.549Z,16.80
2023-05-21T07:05:29.430Z,16.82
2023-05-21T07:07:57.519Z,16.87
2023-05-21T07:10:25.400Z,16.94
2023-05-21T07:12:53.215Z,16.98
2023-05-21T07:15:23.167Z,16.99
2023-05-21T07:17:51.244Z,17.02
2023-05-21T07:20:19.828Z,17.08
2023-05-21T07:22:50.819Z,17.14
2023-05-21T07:25:18.794Z,17.19
2023-05-21T07:27:46.584Z,17.24
2023-05-21T07:30:15.681Z,17.29
2023-05-21T07:32:45.047Z,17.35
2023-05-21T07:35:12.901Z,17.45
2023-05-21T07:37:41.087Z,17.59
2023-05-21T07:40:10.057Z,17.70
2023-05-21T07:42:38.253Z,17.82
2023-05-21T07:45:08.476Z,17.93
2023-05-21T07:47:41.402Z,18.01
2023-05-21T07:50:12.172Z,18.14
2023-05-21T07:52:40.027Z,18.26
2023-05-21T07:55:10.006Z,18.37
2023-05-21T07:57:39.335Z,18.51
2023-05-21T08:00:14.781Z,18.69
2023-05-21T08:02:52.295Z,18.84
2023-05-21T08:05:23.471Z,18.98
2023-05-21T08:07:51.720Z,19.17
2023-05-21T08:10:20.663Z,19.36
2023-05-21T08:12:51.213Z,19.43
2023-05-21T08:15:19.651Z,19.57
2023-05-21T08:17:47.548Z,19.69
2023-05-21T08:20:16.518Z,19.60
2023-05-21T08:22:48.358Z,19.60
2023-05-21T08:25:16.249Z,19.67
2023-05-21T08:27:44.482Z,19.84
2023-05-21T08:30:12.990Z,19.90
2023-05-21T08:32:41.288Z,20.02
2023-05-21T08:35:09.991Z,20.02
2023-05-21T08:37:57.901Z,19.96
2023-05-21T08:40:41.515Z,19.95
2023-05-21T08:43:13.719Z,20.03
2023-05-21T08:45:51.115Z,20.19
2023-05-21T08:48:21.155Z,20.29
2023-05-21T08:50:49.185Z,20.42
2023-05-21T08:53:28.604Z,20.50
2023-05-21T08:55:58.193Z,20.60
2023-05-21T08:58:37.737Z,20.81
2023-05-21T09:01:06.600Z,21.14
2023-05-21T09:03:39.531Z,21.35
2023-05-21T09:06:11.707Z,21.59
2023-05-21T09:08:45.912Z,21.85
2023-05-21T09:11:39.607Z,22.17
2023-05-21T09:14:08.190Z,22.28
2023-05-21T09:16:49.339Z,22.55
2023-05-21T09:19:18.219Z,22.77
2023-05-21T09:21:46.144Z,22.93
2023-05-21T09:24:18.469Z,23.16
2023-05-21T09:26:46.670Z,23.27
2023-05-21T09:29:14.666Z,23.44
2023-05-21T09:31:44.822Z,23.62
2023-05-21T09:34:14.607Z,23.81
2023-05-21T09:36:44.346Z,24.01
2023-05-21T09:39:16.490Z,24.28
2023-05-21T09:41:46.562Z,24.42
2023-05-21T09:44:15.337Z,24.44
2023-05-21T09:46:43.606Z,24.55
2023-05-21T09:49:24.015Z,24.63
2023-05-21T09:51:56.300Z,24.68
2023-05-21T09:54:24.259Z,24.85
2023-05-21T09:56:53.852Z,24.91
2023-05-21T09:59:22.234Z,25.12
2023-05-21T10:01:52.574Z,25.33
2023-05-21T10:04:21.154Z,25.59
2023-05-21T10:06:49.999Z,25.68
2023-05-21T10:09:20.452Z,25.64
2023-05-21T10:11:50.568Z,25.68
2023-05-21T10:14:22.391Z,25.57
2023-05-21T10:16:51.201Z,25.70
2023-05-21T10:19:20.478Z,25.58
2023-05-21T10:21:50.397Z,25.75
2023-05-21T10:24:20.047Z,25.66
2023-05-21T10:26:49.026Z,25.95
2023-05-21T10:29:19.401Z,26.18
2023-05-21T10:31:50.744Z,26.36
2023-05-21T10:34:18.889Z,26.58
2023-05-21T10:36:49.783Z,26.74
2023-05-21T10:39:19.848Z,26.91
2023-05-21T10:41:58.392Z,27.12
2023-05-21T10:44:38.533Z,27.24
2023-05-21T10:47:29.751Z,27.21
2023-05-21T10:50:12.164Z,27.33
2023-05-21T10:52:57.082Z,27.65
2023-05-21T10:55:47.770Z,27.96
2023-05-21T10:58:39.327Z,28.24
2023-05-21T11:01:08.504Z,27.97
2023-05-21T11:03:38.292Z,27.94
2023-05-21T11:06:08.482Z,28.02
2023-05-21T11:08:37.589Z,28.16
2023-05-21T11:11:05.930Z,28.06
2023-05-21T11:13:48.799Z,27.68
2023-05-21T11:16:17.304Z,27.42
2023-05-21T11:19:02.610Z,27.55
2023-05-21T11:21:35.935Z,27.79
2023-05-21T11:24:06.459Z,27.74
2023-05-21T11:27:06.883Z,27.75
2023-05-21T11:29:44.169Z,27.60
2023-05-21T11:32:14.076Z,27.67
2023-05-21T11:34:45.943Z,27.98
2023-05-21T11:37:30.147Z,28.11
2023-05-21T11:40:16.709Z,28.14
2023-05-21T11:42:49.645Z,28.18
2023-05-21T11:45:19.181Z,28.18
2023-05-21T11:47:48.073Z,28.49
2023-05-21T11:50:17.731Z,28.66
2023-05-21T11:52:46.388Z,28.94
2023-05-21T11:55:15.659Z,29.13
2023-05-21T11:57:47.880Z,29.55
2023-05-21T12:00:17.140Z,29.58
2023-05-21T12:02:51.206Z,29.48
2023-05-21T12:05:20.711Z,29.51
2023-05-21T12:07:52.235Z,29.46
2023-05-21T12:10:22.971Z,29.49
2023-05-21T12:12:56.607Z,29.45
2023-05-21T12:15:26.216Z,29.51
2023-05-21T12:17:54.383Z,29.57
2023-05-21T12:20:23.840Z,29.51
2023-05-21T12:22:51.674Z,29.31
2023-05-21T12:25:21.064Z,29.43
2023-05-21T12:27:50.975Z,29.48
2023-05-21T12:30:19.011Z,29.65
2023-05-21T12:32:47.023Z,29.70
2023-05-21T12:35:25.544Z,29.84
2023-05-21T12:37:53.517Z,29.83
2023-05-21T12:40:22.210Z,29.72
2023-05-21T12:42:51.625Z,29.81
2023-05-21T12:45:22.086Z,29.52
2023-05-21T12:47:56.023Z,29.58
2023-05-21T12:50:25.635Z,29.61
2023-05-21T12:52:56.936Z,29.30
2023-05-21T12:55:25.738Z,29.16
2023-05-21T12:58:02.718Z,29.05
2023-05-21T13:00:30.591Z,29.23
2023-05-21T13:03:00.117Z,29.37
2023-05-21T13:05:29.418Z,29.55
2023-05-21T13:07:57.230Z,29.36
2023-05-21T13:10:25.210Z,29.04
2023-05-21T13:12:53.073Z,29.00
2023-05-21T13:15:21.434Z,28.75
2023-05-21T13:17:50.598Z,28.82
2023-05-21T13:20:21.648Z,28.70
2023-05-21T13:22:52.774Z,28.96
2023-05-21T13:25:22.092Z,29.28
2023-05-21T13:27:51.257Z,29.12
2023-05-21T13:30:19.826Z,29.24
2023-05-21T13:32:47.982Z,29.20
2023-05-21T13:35:16.780Z,29.32
2023-05-21T13:37:45.521Z,29.40
2023-05-21T13:40:16.586Z,29.43
2023-05-21T13:42:45.467Z,29.34
2023-05-21T13:45:15.276Z,29.10
2023-05-21T13:47:44.290Z,29.18
2023-05-21T13:50:13.327Z,29.07
2023-05-21T13:52:41.292Z,29.14
2023-05-21T13:55:11.215Z,29.15
2023-05-21T13:57:40.635Z,29.04
2023-05-21T14:00:12.500Z,29.19
2023-05-21T14:02:43.221Z,29.05
2023-05-21T14:05:12.361Z,29.13
2023-05-21T14:07:40.937Z,29.05
2023-05-21T14:10:09.858Z,29.02
2023-05-21T14:12:38.528Z,29.29
2023-05-21T14:15:08.727Z,29.43
2023-05-21T14:17:36.634Z,29.36
2023-05-21T14:20:04.703Z,29.14
2023-05-21T14:22:32.567Z,29.02
2023-05-21T14:25:00.414Z,29.08
2023-05-21T14:27:28.256Z,28.86
2023-05-21T14:29:56.098Z,28.90
2023-05-21T14:32:25.372Z,28.69
2023-05-21T14:34:53.274Z,28.61
2023-05-21T14:37:21.124Z,28.72
2023-05-21T14:39:49.322Z,28.74
2023-05-21T14:42:17.371Z,28.64
2023-05-21T14:44:45.179Z,28.79
2023-05-21T14:47:12.995Z,28.66
2023-05-21T14:49:42.177Z,28.67
2023-05-21T14:52:10.014Z,28.66
2023-05-21T14:54:38.494Z,28.34
2023-05-21T14:57:06.681Z,28.26
2023-05-21T14:59:34.557Z,28.49
2023-05-21T15:02:02.632Z,28.67
2023-05-21T15:04:30.659Z,28.54
2023-05-21T15:06:59.802Z,28.51
2023-05-21T15:09:27.613Z,28.78
2023-05-21T15:11:55.552Z,28.50
2023-05-21T15:14:23.382Z,28.14
2023-05-21T15:16:51.272Z,28.14
2023-05-21T15:19:19.210Z,27.96
2023-05-21T15:21:47.125Z,27.91
2023-05-21T15:24:16.256Z,27.98
2023-05-21T15:26:44.047Z,27.97
2023-05-21T15:29:11.882Z,27.87
2023-05-21T15:31:39.677Z,27.59
2023-05-21T15:34:07.697Z,27.30
2023-05-21T15:36:36.570Z,27.09
2023-05-21T15:39:05.961Z,27.03
2023-05-21T15:41:38.295Z,27.00
2023-05-21T15:44:06.276Z,26.73
2023-05-21T15:46:34.213Z,26.73
2023-05-21T15:49:02.096Z,26.71
2023-05-21T15:51:29.895Z,26.40
2023-05-21T15:53:57.711Z,26.41
2023-05-21T15:56:26.562Z,26.56
2023-05-21T15:58:58.522Z,26.54
2023-05-21T16:01:27.353Z,26.32
2023-05-21T16:03:55.416Z,26.23
2023-05-21T16:06:23.249Z,26.22
2023-05-21T16:08:51.083Z,26.13
2023-05-21T16:11:18.961Z,25.85
2023-05-21T16:13:46.793Z,25.95
2023-05-21T16:16:16.118Z,25.90
2023-05-21T16:18:43.994Z,25.64
2023-05-21T16:21:11.869Z,25.46
2023-05-21T16:23:39.755Z,25.54
2023-05-21T16:26:08.283Z,25.51
2023-05-21T16:28:37.514Z,25.35
2023-05-21T16:31:05.845Z,25.25
2023-05-21T16:33:35.026Z,25.14
2023-05-21T16:36:02.882Z,24.96
2023-05-21T16:38:30.679Z,25.19
2023-05-21T16:40:58.512Z,25.22
2023-05-21T16:43:26.309Z,25.15
2023-05-21T16:45:54.255Z,25.16
2023-05-21T16:48:22.112Z,25.26
2023-05-21T16:50:51.315Z,25.24
2023-05-21T16:53:19.158Z,24.87
2023-05-21T16:55:46.989Z,24.74
2023-05-21T16:58:14.829Z,24.54
2023-05-21T17:00:42.676Z,24.61
2023-05-21T17:03:11.039Z,24.64
2023-05-21T17:05:39.200Z,24.51
2023-05-21T17:08:08.651Z,24.53
2023-05-21T17:10:36.499Z,24.33
2023-05-21T17:13:17.442Z,24.08
2023-05-21T17:15:49.099Z,23.87
2023-05-21T17:18:17.208Z,23.76
2023-05-21T17:20:45.082Z,23.78
2023-05-21T17:23:14.280Z,23.72
2023-05-21T17:25:42.154Z,23.57
2023-05-21T17:28:10.155Z,23.52
2023-05-21T17:30:37.990Z,23.47
2023-05-21T17:33:06.529Z,23.61
2023-05-21T17:35:35.131Z,23.79
2023-05-21T17:38:03.079Z,23.83
2023-05-21T17:40:32.230Z,23.54
2023-05-21T17:43:00.060Z,23.37
2023-05-21T17:45:27.838Z,23.45
2023-05-21T17:47:59.669Z,23.39
2023-05-21T17:50:28.233Z,23.22
2023-05-21T17:52:56.165Z,23.24
2023-05-21T17:55:23.970Z,23.31
2023-05-21T17:57:53.218Z,23.02
2023-05-21T18:00:21.626Z,22.99
2023-05-21T18:02:49.480Z,22.83
2023-05-21T18:05:17.406Z,22.83
2023-05-21T18:07:45.319Z,22.72
2023-05-21T18:10:15.187Z,22.62
2023-05-21T18:12:43.795Z,22.55
2023-05-21T18:15:14.615Z,22.55
2023-05-21T18:17:42.317Z,22.34
2023-05-21T18:20:10.969Z,22.36
2023-05-21T18:22:38.823Z,22.43
2023-05-21T18:25:07.696Z,22.39
2023-05-21T18:27:35.510Z,22.41
2023-05-21T18:30:06.259Z,22.48
2023-05-21T18:32:38.474Z,22.36
2023-05-21T18:35:07.825Z,22.49
2023-05-21T18:37:36.931Z,22.40
2023-05-21T18:40:05.865Z,22.29
2023-05-21T18:42:33.745Z,22.37
2023-05-21T18:45:07.389Z,22.43
2023-05-21T18:47:39.047Z,22.05
2023-05-21T18:50:08.889Z,21.95
2023-05-21T18:52:36.729Z,21.99
2023-05-21T18:55:05.505Z,21.81
2023-05-21T18:57:34.778Z,21.79
2023-05-21T19:00:03.068Z,21.86
2023-05-21T19:02:31.094Z,21.92
2023-05-21T19:05:01.911Z,21.91
2023-05-21T19:07:30.200Z,21.86
2023-05-21T19:10:00.027Z,21.71
2023-05-21T19:12:29.339Z,21.51
2023-05-21T19:14:57.208Z,21.40
2023-05-21T19:17:25.075Z,21.19
2023-05-21T19:19:55.869Z,20.93
2023-05-21T19:22:25.486Z,20.77
2023-05-21T19:24:53.422Z,20.93
2023-05-21T19:27:21.591Z,20.86
2023-05-21T19:29:49.466Z,20.87
2023-05-21T19:32:17.740Z,20.93
2023-05-21T19:34:46.572Z,20.94
2023-05-21T19:37:14.422Z,20.87
2023-05-21T19:39:44.691Z,20.70
2023-05-21T19:42:12.564Z,20.58
2023-05-21T19:44:41.235Z,20.52
2023-05-21T19:47:09.356Z,20.41
2023-05-21T19:49:37.231Z,20.29
2023-05-21T19:52:06.032Z,20.28
2023-05-21T19:54:33.896Z,20.30
2023-05-21T19:57:03.371Z,20.23
2023-05-21T19:59:31.165Z,20.06
2023-05-21T20:01:59.060Z,19.87
2023-05-21T20:04:26.945Z,19.81
2023-05-21T20:06:54.835Z,19.80
2023-05-21T20:09:22.627Z,19.77
2023-05-21T20:11:50.540Z,19.66
2023-05-21T20:14:19.714Z,19.79
2023-05-21T20:16:48.423Z,19.74
2023-05-21T20:19:16.345Z,19.62
2023-05-21T20:21:44.304Z,19.58
2023-05-21T20:24:12.239Z,19.50
2023-05-21T20:26:40.072Z,19.51
2023-05-21T20:29:08.223Z,19.60
2023-05-21T20:31:37.763Z,19.77
2023-05-21T20:34:09.050Z,19.60
2023-05-21T20:36:37.200Z,19.50
2023-05-21T20:39:06.229Z,19.37
2023-05-21T20:41:36.246Z,19.19
2023-05-21T20:44:06.036Z,19.12
2023-05-21T20:46:34.288Z,19.05
2023-05-21T20:49:04.050Z,18.93
2023-05-21T20:51:32.286Z,18.81
2023-05-21T20:54:00.148Z,18.69
2023-05-21T20:56:40.820Z,18.61
2023-05-21T20:59:11.398Z,18.71
2023-05-21T21:01:40.624Z,18.85
2023-05-21T21:04:10.534Z,18.76
2023-05-21T21:06:40.239Z,18.66
2023-05-21T21:09:08.397Z,18.62
2023-05-21T21:11:36.222Z,18.68
2023-05-21T21:14:04.170Z,18.67
2023-05-21T21:16:32.198Z,18.71
2023-05-21T21:19:00.127Z,18.59
2023-05-21T21:21:29.510Z,18.59
2023-05-21T21:23:57.462Z,18.61
2023-05-21T21:26:27.027Z,18.63
2023-05-21T21:28:56.247Z,18.63
2023-05-21T21:31:24.773Z,18.53
2023-05-21T21:33:52.784Z,18.47
2023-05-21T21:36:20.671Z,18.49
2023-05-21T21:38:49.838Z,18.51
2023-05-21T21:41:17.734Z,18.63
2023-05-21T21:43:45.560Z,18.68
2023-05-21T21:46:13.414Z,18.71
2023-05-21T21:48:41.275Z,18.72
2023-05-21T21:51:09.106Z,18.66
2023-05-21T21:53:36.939Z,18.62
2023-05-21T21:56:06.460Z,18.59
2023-05-21T21:58:34.330Z,18.49
2023-05-21T22:01:02.246Z,18.38
2023-05-21T22:03:33.338Z,18.24
2023-05-21T22:06:01.227Z,18.21
2023-05-21T22:08:29.130Z,18.23
2023-05-21T22:10:56.919Z,18.30
2023-05-21T22:13:28.516Z,18.14
2023-05-21T22:15:57.762Z,18.08
2023-05-21T22:18:38.820Z,18.06
2023-05-21T22:21:09.694Z,18.04
2023-05-21T22:23:38.359Z,18.06
2023-05-21T22:26:06.492Z,17.86
2023-05-21T22:28:35.784Z,17.96
2023-05-21T22:31:03.908Z,17.82
2023-05-21T22:33:32.081Z,17.86
2023-05-21T22:35:59.925Z,17.93
2023-05-21T22:38:27.814Z,17.77
2023-05-21T22:40:55.600Z,17.73
2023-05-21T22:43:23.413Z,17.85
2023-05-21T22:45:52.650Z,17.91
2023-05-21T22:48:21.926Z,17.86
2023-05-21T22:50:50.147Z,17.84
2023-05-21T22:53:18.373Z,17.66
2023-05-21T22:55:46.188Z,17.61
2023-05-21T22:58:14.000Z,17.65
2023-05-21T23:00:41.960Z,17.68
2023-05-21T23:03:11.267Z,17.67
2023-05-21T23:05:39.336Z,17.70
2023-05-21T23:08:07.418Z,17.61
2023-05-21T23:10:36.068Z,17.63
2023-05-21T23:13:04.023Z,17.70
2023-05-21T23:15:31.874Z,17.56
2023-05-21T23:18:00.400Z,17.57
2023-05-21T23:20:29.634Z,17.52
2023-05-21T23:22:57.467Z,17.29
2023-05-21T23:25:25.293Z,17.27
2023-05-21T23:27:53.085Z,17.38
2023-05-21T23:30:21.100Z,17.44
2023-05-21T23:32:49.022Z,17.47
2023-05-21T23:35:16.979Z,17.48
2023-05-21T23:37:46.182Z,17.56
2023-05-21T23:40:14.226Z,17.62
2023-05-21T23:42:42.174Z,17.63
2023-05-21T23:45:10.643Z,17.50
2023-05-21T23:47:38.518Z,17.33
2023-05-21T23:50:07.841Z,17.32
2023-05-21T23:52:35.892Z,17.33
2023-05-21T23:55:05.346Z,17.30
2023-05-21T23:57:33.144Z,17.20
